Terminal Aerodrome Forecast
Issued by NWS

Home | Current Version | Previous Version | Text Only | Print | Product List | Glossary On
Versions: 1 2 3 4 5 6 7 8 9 10 11 12 13 14 15 16 17
000
FTUS46 KMFR 240840 AAA
TAFRBG
TAF AMD
KRBG 240840Z 2409/2506 VRB03KT 1SM BR SCT002 BKN009
     FM241100 00000KT 1/4SM FG VV002
     FM241600 VRB03KT 3SM BR SCT002 OVC050
     FM241700 VRB03KT P6SM BKN050 OVC100
     FM242000 18007KT P6SM -RA SCT020 OVC040
     FM250300 00000KT 5SM -RADZ BR OVC020=

USA.gov is the U.S. government's official web portal to all federal, state and local government web resources and services.